sensor_id;sensor_type;location;lat;lon;timestamp;pressure;altitude;pressure_sealevel;temperature;humidity
62694;BME280;48759;52.544;13.418;2023-01-28T00:00:48;102082.63;;;-1.73;100.00
62694;BME280;48759;52.544;13.418;2023-01-28T00:03:14;102072.94;;;-1.91;100.00
62694;BME280;48759;52.544;13.418;2023-01-28T00:05:41;102067.94;;;-1.97;100.00
62694;BME280;48759;52.544;13.418;2023-01-28T00:08:08;102070.59;;;-1.67;100.00
62694;BME280;48759;52.544;13.418;2023-01-28T00:10:37;102068.91;;;-1.98;100.00
62694;BME280;48759;52.544;13.418;2023-01-28T00:13:04;102073.88;;;-2.06;100.00
62694;BME280;48759;52.544;13.418;2023-01-28T00:15:30;102067.97;;;-1.83;100.00
62694;BME280;48759;52.544;13.418;2023-01-28T00:17:57;102072.22;;;-1.79;100.00
62694;BME280;48759;52.544;13.418;2023-01-28T00:20:24;102069.69;;;-1.96;100.00
62694;BME280;48759;52.544;13.418;2023-01-28T00:22:50;102077.47;;;-1.92;100.00
62694;BME280;48759;52.544;13.418;2023-01-28T00:25:17;102088.00;;;-2.17;100.00
62694;BME280;48759;52.544;13.418;2023-01-28T00:27:46;102074.69;;;-2.50;100.00
62694;BME280;48759;52.544;13.418;2023-01-28T00:30:13;102081.56;;;-2.14;100.00
62694;BME280;48759;52.544;13.418;2023-01-28T00:32:40;102086.38;;;-2.19;100.00
62694;BME280;48759;52.544;13.418;2023-01-28T00:35:07;102086.50;;;-2.07;100.00
62694;BME280;48759;52.544;13.418;2023-01-28T00:37:34;102085.25;;;-2.01;100.00
62694;BME280;48759;52.544;13.418;2023-01-28T00:40:02;102080.78;;;-2.16;100.00
62694;BME280;48759;52.544;13.418;2023-01-28T00:42:28;102082.75;;;-2.04;100.00
62694;BME280;48759;52.544;13.418;2023-01-28T00:44:56;102082.69;;;-2.03;100.00
62694;BME280;48759;52.544;13.418;2023-01-28T00:47:23;102079.81;;;-2.15;100.00
62694;BME280;48759;52.544;13.418;2023-01-28T00:49:50;102082.59;;;-2.17;100.00
62694;BME280;48759;52.544;13.418;2023-01-28T00:52:16;102093.06;;;-2.11;100.00
62694;BME280;48759;52.544;13.418;2023-01-28T00:54:43;102090.47;;;-1.98;100.00
62694;BME280;48759;52.544;13.418;2023-01-28T00:57:10;102088.69;;;-2.13;100.00
62694;BME280;48759;52.544;13.418;2023-01-28T00:59:37;102086.81;;;-2.27;100.00
62694;BME280;48759;52.544;13.418;2023-01-28T01:02:05;102095.66;;;-2.09;100.00
62694;BME280;48759;52.544;13.418;2023-01-28T01:04:37;102099.97;;;-2.07;100.00
62694;BME280;48759;52.544;13.418;2023-01-28T01:07:04;102090.28;;;-2.09;100.00
62694;BME280;48759;52.544;13.418;2023-01-28T01:09:31;102097.06;;;-2.18;100.00
62694;BME280;48759;52.544;13.418;2023-01-28T01:11:57;102092.22;;;-1.97;100.00
62694;BME280;48759;52.544;13.418;2023-01-28T01:14:24;102087.59;;;-1.95;100.00
62694;BME280;48759;52.544;13.418;2023-01-28T01:16:51;102089.06;;;-1.89;100.00
62694;BME280;48759;52.544;13.418;2023-01-28T01:19:19;102087.63;;;-1.81;100.00
62694;BME280;48759;52.544;13.418;2023-01-28T01:21:45;102087.22;;;-1.89;100.00
62694;BME280;48759;52.544;13.418;2023-01-28T01:24:15;102095.22;;;-1.87;100.00
62694;BME280;48759;52.544;13.418;2023-01-28T01:26:41;102100.41;;;-1.55;100.00
62694;BME280;48759;52.544;13.418;2023-01-28T01:29:08;102102.16;;;-1.25;100.00
62694;BME280;48759;52.544;13.418;2023-01-28T01:31:35;102097.72;;;-1.12;100.00
62694;BME280;48759;52.544;13.418;2023-01-28T01:34:01;102100.78;;;-1.04;100.00
62694;BME280;48759;52.544;13.418;2023-01-28T01:36:30;102093.63;;;-0.91;100.00
62694;BME280;48759;52.544;13.418;2023-01-28T01:38:56;102096.34;;;-0.77;100.00
62694;BME280;48759;52.544;13.418;2023-01-28T01:41:26;102100.19;;;-0.81;100.00
62694;BME280;48759;52.544;13.418;2023-01-28T01:43:55;102097.84;;;-0.72;100.00
62694;BME280;48759;52.544;13.418;2023-01-28T01:46:26;102099.47;;;-0.56;100.00
62694;BME280;48759;52.544;13.418;2023-01-28T01:48:56;102102.66;;;-0.63;100.00
62694;BME280;48759;52.544;13.418;2023-01-28T01:51:31;102106.78;;;-0.58;100.00
62694;BME280;48759;52.544;13.418;2023-01-28T01:53:59;102111.69;;;-0.77;100.00
62694;BME280;48759;52.544;13.418;2023-01-28T01:56:31;102119.63;;;-0.47;100.00
62694;BME280;48759;52.544;13.418;2023-01-28T01:58:59;102109.97;;;-0.51;100.00
62694;BME280;48759;52.544;13.418;2023-01-28T02:01:28;102115.38;;;-0.24;100.00
62694;BME280;48759;52.544;13.418;2023-01-28T02:04:01;102109.53;;;-0.31;100.00
62694;BME280;48759;52.544;13.418;2023-01-28T02:06:31;102116.09;;;-0.35;100.00
62694;BME280;48759;52.544;13.418;2023-01-28T02:08:59;102116.88;;;-0.33;100.00
62694;BME280;48759;52.544;13.418;2023-01-28T02:11:29;102111.66;;;-0.36;100.00
62694;BME280;48759;52.544;13.418;2023-01-28T02:14:00;102108.91;;;-0.22;100.00
62694;BME280;48759;52.544;13.418;2023-01-28T02:16:28;102107.66;;;-0.04;100.00
62694;BME280;48759;52.544;13.418;2023-01-28T02:18:56;102109.00;;;-0.23;100.00
62694;BME280;48759;52.544;13.418;2023-01-28T02:21:57;102101.75;;;-0.23;100.00
62694;BME280;48759;52.544;13.418;2023-01-28T02:25:01;102100.19;;;-0.40;100.00
62694;BME280;48759;52.544;13.418;2023-01-28T02:27:37;102108.50;;;-0.16;100.00
62694;BME280;48759;52.544;13.418;2023-01-28T02:30:12;102105.03;;;-0.18;100.00
62694;BME280;48759;52.544;13.418;2023-01-28T02:32:45;102111.72;;;-0.23;100.00
62694;BME280;48759;52.544;13.418;2023-01-28T02:35:23;102110.66;;;-0.21;100.00
62694;BME280;48759;52.544;13.418;2023-01-28T02:37:54;102099.00;;;-0.09;100.00
62694;BME280;48759;52.544;13.418;2023-01-28T02:40:27;102114.97;;;-0.18;100.00
62694;BME280;48759;52.544;13.418;2023-01-28T02:42:55;102121.41;;;-0.33;100.00
62694;BME280;48759;52.544;13.418;2023-01-28T02:45:25;102115.84;;;-0.45;100.00
62694;BME280;48759;52.544;13.418;2023-01-28T02:48:14;102116.81;;;-0.19;100.00
62694;BME280;48759;52.544;13.418;2023-01-28T02:50:45;102116.28;;;-0.11;100.00
62694;BME280;48759;52.544;13.418;2023-01-28T02:53:19;102110.50;;;-0.05;100.00
62694;BME280;48759;52.544;13.418;2023-01-28T02:56:14;102114.84;;;-0.29;100.00
62694;BME280;48759;52.544;13.418;2023-01-28T02:58:46;102118.59;;;-0.32;100.00
62694;BME280;48759;52.544;13.418;2023-01-28T03:01:23;102111.50;;;-0.20;100.00
62694;BME280;48759;52.544;13.418;2023-01-28T03:03:57;102118.91;;;-0.10;100.00
62694;BME280;48759;52.544;13.418;2023-01-28T03:06:29;102110.94;;;-0.52;100.00
62694;BME280;48759;52.544;13.418;2023-01-28T03:09:01;102116.88;;;-0.33;100.00
62694;BME280;48759;52.544;13.418;2023-01-28T03:11:49;102111.91;;;-0.26;100.00
62694;BME280;48759;52.544;13.418;2023-01-28T03:14:35;102120.69;;;-0.50;100.00
62694;BME280;48759;52.544;13.418;2023-01-28T03:17:26;102122.47;;;-0.36;100.00
62694;BME280;48759;52.544;13.418;2023-01-28T03:20:12;102114.25;;;-0.08;100.00
62694;BME280;48759;52.544;13.418;2023-01-28T03:23:00;102120.75;;;-0.37;100.00
62694;BME280;48759;52.544;13.418;2023-01-28T03:25:48;102119.34;;;-0.03;100.00
62694;BME280;48759;52.544;13.418;2023-01-28T03:28:36;102120.63;;;-0.09;100.00
62694;BME280;48759;52.544;13.418;2023-01-28T03:31:22;102122.50;;;0.03;100.00
62694;BME280;48759;52.544;13.418;2023-01-28T03:34:10;102117.94;;;-0.09;100.00
62694;BME280;48759;52.544;13.418;2023-01-28T03:36:55;102117.75;;;-0.06;100.00
62694;BME280;48759;52.544;13.418;2023-01-28T03:39:25;102122.66;;;0.15;100.00
62694;BME280;48759;52.544;13.418;2023-01-28T03:41:57;102114.38;;;0.03;100.00
62694;BME280;48759;52.544;13.418;2023-01-28T03:44:25;102115.84;;;0.22;100.00
62694;BME280;48759;52.544;13.418;2023-01-28T03:47:10;102111.31;;;-0.05;100.00
62694;BME280;48759;52.544;13.418;2023-01-28T03:49:39;102112.44;;;0.06;100.00
62694;BME280;48759;52.544;13.418;2023-01-28T03:52:06;102109.53;;;-0.31;100.00
62694;BME280;48759;52.544;13.418;2023-01-28T03:54:34;102120.38;;;0.09;100.00
62694;BME280;48759;52.544;13.418;2023-01-28T03:57:00;102115.31;;;0.17;100.00
62694;BME280;48759;52.544;13.418;2023-01-28T03:59:27;102113.56;;;0.16;100.00
62694;BME280;48759;52.544;13.418;2023-01-28T04:01:53;102113.13;;;0.22;100.00
62694;BME280;48759;52.544;13.418;2023-01-28T04:04:20;102108.72;;;0.33;100.00
62694;BME280;48759;52.544;13.418;2023-01-28T04:06:51;102110.25;;;-0.15;100.00
62694;BME280;48759;52.544;13.418;2023-01-28T04:09:18;102108.69;;;0.21;100.00
62694;BME280;48759;52.544;13.418;2023-01-28T04:11:45;102113.81;;;0.25;100.00
62694;BME280;48759;52.544;13.418;2023-01-28T04:14:11;102114.16;;;0.46;100.00
62694;BME280;48759;52.544;13.418;2023-01-28T04:16:39;102103.19;;;0.22;98.99
62694;BME280;48759;52.544;13.418;2023-01-28T04:19:06;102106.13;;;0.32;94.93
62694;BME280;48759;52.544;13.418;2023-01-28T04:21:33;102113.56;;;0.16;96.54
62694;BME280;48759;52.544;13.418;2023-01-28T04:24:00;102108.94;;;0.43;95.73
62694;BME280;48759;52.544;13.418;2023-01-28T04:26:27;102108.06;;;0.43;95.40
62694;BME280;48759;52.544;13.418;2023-01-28T04:28:54;102105.47;;;0.66;92.24
62694;BME280;48759;52.544;13.418;2023-01-28T04:31:20;102108.72;;;0.84;91.83
62694;BME280;48759;52.544;13.418;2023-01-28T04:33:48;102115.91;;;0.72;90.44
62694;BME280;48759;52.544;13.418;2023-01-28T04:36:14;102106.78;;;0.61;88.49
62694;BME280;48759;52.544;13.418;2023-01-28T04:38:41;102116.44;;;0.77;87.84
62694;BME280;48759;52.544;13.418;2023-01-28T04:41:09;102114.34;;;0.43;90.48
62694;BME280;48759;52.544;13.418;2023-01-28T04:43:35;102113.38;;;0.19;93.54
62694;BME280;48759;52.544;13.418;2023-01-28T04:46:02;102116.09;;;0.31;92.57
62694;BME280;48759;52.544;13.418;2023-01-28T04:48:29;102112.31;;;0.47;93.08
62694;BME280;48759;52.544;13.418;2023-01-28T04:50:56;102104.47;;;0.17;92.70
62694;BME280;48759;52.544;13.418;2023-01-28T04:53:22;102105.16;;;0.71;89.98
62694;BME280;48759;52.544;13.418;2023-01-28T04:55:49;102104.75;;;0.64;88.96
62694;BME280;48759;52.544;13.418;2023-01-28T04:58:17;102102.75;;;0.66;86.47
62694;BME280;48759;52.544;13.418;2023-01-28T05:00:44;102112.66;;;0.42;88.99
62694;BME280;48759;52.544;13.418;2023-01-28T05:03:10;102108.81;;;0.32;91.99
62694;BME280;48759;52.544;13.418;2023-01-28T05:05:37;102106.88;;;0.59;90.39
62694;BME280;48759;52.544;13.418;2023-01-28T05:08:04;102117.09;;;0.81;87.12
62694;BME280;48759;52.544;13.418;2023-01-28T05:10:30;102115.38;;;0.93;86.92
62694;BME280;48759;52.544;13.418;2023-01-28T05:12:57;102120.09;;;0.51;86.12
62694;BME280;48759;52.544;13.418;2023-01-28T05:15:25;102129.97;;;0.52;87.59
62694;BME280;48759;52.544;13.418;2023-01-28T05:17:53;102123.34;;;0.44;85.90
62694;BME280;48759;52.544;13.418;2023-01-28T05:20:20;102131.25;;;0.34;85.63
62694;BME280;48759;52.544;13.418;2023-01-28T05:22:47;102135.81;;;0.46;85.09
62694;BME280;48759;52.544;13.418;2023-01-28T05:25:14;102137.03;;;0.55;85.76
62694;BME280;48759;52.544;13.418;2023-01-28T05:27:40;102134.22;;;0.82;83.07
62694;BME280;48759;52.544;13.418;2023-01-28T05:30:08;102140.06;;;0.75;81.81
62694;BME280;48759;52.544;13.418;2023-01-28T05:32:36;102130.94;;;0.76;83.18
62694;BME280;48759;52.544;13.418;2023-01-28T05:35:03;102140.72;;;0.79;82.16
62694;BME280;48759;52.544;13.418;2023-01-28T05:37:30;102137.91;;;0.81;82.31
62694;BME280;48759;52.544;13.418;2023-01-28T05:39:57;102122.41;;;0.70;78.61
62694;BME280;48759;52.544;13.418;2023-01-28T05:42:24;102136.09;;;0.29;79.69
62694;BME280;48759;52.544;13.418;2023-01-28T05:44:50;102139.97;;;0.12;83.31
62694;BME280;48759;52.544;13.418;2023-01-28T05:47:17;102132.22;;;0.46;82.96
62694;BME280;48759;52.544;13.418;2023-01-28T05:49:45;102133.34;;;0.68;80.75
62694;BME280;48759;52.544;13.418;2023-01-28T05:52:12;102129.66;;;0.69;81.25
62694;BME280;48759;52.544;13.418;2023-01-28T05:54:39;102130.31;;;0.86;83.34
62694;BME280;48759;52.544;13.418;2023-01-28T05:57:05;102125.91;;;0.97;81.78
62694;BME280;48759;52.544;13.418;2023-01-28T05:59:32;102123.19;;;0.97;81.40
62694;BME280;48759;52.544;13.418;2023-01-28T06:01:59;102139.88;;;0.91;80.82
62694;BME280;48759;52.544;13.418;2023-01-28T06:04:25;102131.16;;;0.48;87.56
62694;BME280;48759;52.544;13.418;2023-01-28T06:06:53;102135.50;;;0.63;86.08
62694;BME280;48759;52.544;13.418;2023-01-28T06:09:20;102126.03;;;0.31;84.84
62694;BME280;48759;52.544;13.418;2023-01-28T06:11:46;102133.75;;;0.37;87.10
62694;BME280;48759;52.544;13.418;2023-01-28T06:14:14;102137.56;;;0.60;85.63
62694;BME280;48759;52.544;13.418;2023-01-28T06:16:41;102133.63;;;0.38;88.37
62694;BME280;48759;52.544;13.418;2023-01-28T06:19:08;102135.06;;;0.82;83.51
62694;BME280;48759;52.544;13.418;2023-01-28T06:21:34;102137.00;;;0.67;85.24
62694;BME280;48759;52.544;13.418;2023-01-28T06:24:03;102132.91;;;0.74;86.49
62694;BME280;48759;52.544;13.418;2023-01-28T06:26:29;102139.13;;;0.89;82.89
62694;BME280;48759;52.544;13.418;2023-01-28T06:28:56;102148.72;;;0.55;82.83
62694;BME280;48759;52.544;13.418;2023-01-28T06:31:23;102143.09;;;0.71;82.29
62694;BME280;48759;52.544;13.418;2023-01-28T06:33:49;102145.47;;;0.75;83.29
62694;BME280;48759;52.544;13.418;2023-01-28T06:36:16;102148.09;;;0.64;84.40
62694;BME280;48759;52.544;13.418;2023-01-28T06:38:43;102140.59;;;0.55;84.96
62694;BME280;48759;52.544;13.418;2023-01-28T06:41:11;102142.56;;;0.91;83.64
62694;BME280;48759;52.544;13.418;2023-01-28T06:43:37;102141.78;;;0.76;84.41
62694;BME280;48759;52.544;13.418;2023-01-28T06:46:05;102149.56;;;0.43;86.36
62694;BME280;48759;52.544;13.418;2023-01-28T06:48:31;102157.81;;;0.54;87.77
62694;BME280;48759;52.544;13.418;2023-01-28T06:50:58;102156.31;;;0.75;85.22
62694;BME280;48759;52.544;13.418;2023-01-28T06:53:24;102155.25;;;0.78;84.61
62694;BME280;48759;52.544;13.418;2023-01-28T06:55:51;102157.09;;;0.65;83.25
62694;BME280;48759;52.544;13.418;2023-01-28T06:58:19;102150.03;;;0.75;83.96
62694;BME280;48759;52.544;13.418;2023-01-28T07:00:46;102147.34;;;1.00;80.72
62694;BME280;48759;52.544;13.418;2023-01-28T07:03:12;102153.53;;;0.90;78.61
62694;BME280;48759;52.544;13.418;2023-01-28T07:05:39;102154.91;;;0.70;77.49
62694;BME280;48759;52.544;13.418;2023-01-28T07:08:06;102150.91;;;0.75;77.60
62694;BME280;48759;52.544;13.418;2023-01-28T07:10:33;102154.91;;;0.83;78.24
62694;BME280;48759;52.544;13.418;2023-01-28T07:12:59;102161.31;;;1.07;76.81
62694;BME280;48759;52.544;13.418;2023-01-28T07:15:27;102157.13;;;1.03;76.89
62694;BME280;48759;52.544;13.418;2023-01-28T07:17:56;102169.13;;;0.99;76.56
62694;BME280;48759;52.544;13.418;2023-01-28T07:20:23;102166.09;;;0.91;76.27
62694;BME280;48759;52.544;13.418;2023-01-28T07:22:51;102159.13;;;0.61;77.17
62694;BME280;48759;52.544;13.418;2023-01-28T07:25:18;102163.41;;;1.03;77.77
62694;BME280;48759;52.544;13.418;2023-01-28T07:27:46;102170.19;;;0.84;77.90
62694;BME280;48759;52.544;13.418;2023-01-28T07:30:13;102163.38;;;1.16;76.91
62694;BME280;48759;52.544;13.418;2023-01-28T07:32:42;102167.84;;;0.92;76.64
62694;BME280;48759;52.544;13.418;2023-01-28T07:35:08;102160.47;;;1.19;74.22
62694;BME280;48759;52.544;13.418;2023-01-28T07:37:35;102159.59;;;1.06;74.82
62694;BME280;48759;52.544;13.418;2023-01-28T07:40:02;102160.47;;;0.81;76.13
62694;BME280;48759;52.544;13.418;2023-01-28T07:42:29;102153.97;;;1.09;74.19
62694;BME280;48759;52.544;13.418;2023-01-28T07:44:55;102163.38;;;0.65;73.38
62694;BME280;48759;52.544;13.418;2023-01-28T07:47:22;102162.22;;;0.95;72.87
62694;BME280;48759;52.544;13.418;2023-01-28T07:49:50;102160.41;;;1.44;69.79
62694;BME280;48759;52.544;13.418;2023-01-28T07:52:17;102163.31;;;1.54;68.22
62694;BME280;48759;52.544;13.418;2023-01-28T07:54:43;102165.25;;;1.65;68.04
62694;BME280;48759;52.544;13.418;2023-01-28T07:57:10;102163.88;;;1.83;66.90
62694;BME280;48759;52.544;13.418;2023-01-28T07:59:36;102162.91;;;1.47;67.86
62694;BME280;48759;52.544;13.418;2023-01-28T08:02:03;102159.72;;;1.66;68.36
62694;BME280;48759;52.544;13.418;2023-01-28T08:04:30;102166.69;;;1.58;68.25
62694;BME280;48759;52.544;13.418;2023-01-28T08:06:58;102167.53;;;1.58;68.73
62694;BME280;48759;52.544;13.418;2023-01-28T08:09:25;102167.28;;;1.61;67.68
62694;BME280;48759;52.544;13.418;2023-01-28T08:11:52;102184.94;;;1.43;66.58
62694;BME280;48759;52.544;13.418;2023-01-28T08:14:19;102171.34;;;1.55;66.82
62694;BME280;48759;52.544;13.418;2023-01-28T08:16:45;102184.69;;;1.59;66.92
62694;BME280;48759;52.544;13.418;2023-01-28T08:19:12;102183.09;;;1.80;66.63
62694;BME280;48759;52.544;13.418;2023-01-28T08:21:39;102187.50;;;1.57;66.38
62694;BME280;48759;52.544;13.418;2023-01-28T08:24:07;102183.09;;;1.80;65.55
62694;BME280;48759;52.544;13.418;2023-01-28T08:26:33;102189.19;;;2.07;65.40
62694;BME280;48759;52.544;13.418;2023-01-28T08:29:00;102194.44;;;2.56;64.05
62694;BME280;48759;52.544;13.418;2023-01-28T08:31:27;102196.88;;;2.48;63.30
62694;BME280;48759;52.544;13.418;2023-01-28T08:33:54;102199.19;;;2.65;62.48
62694;BME280;48759;52.544;13.418;2023-01-28T08:36:21;102196.97;;;2.36;61.81
62694;BME280;48759;52.544;13.418;2023-01-28T08:38:51;102214.25;;;2.35;62.83
62694;BME280;48759;52.544;13.418;2023-01-28T08:41:20;102201.75;;;1.84;62.97
62694;BME280;48759;52.544;13.418;2023-01-28T08:43:47;102206.22;;;2.09;62.67
62694;BME280;48759;52.544;13.418;2023-01-28T08:46:14;102209.47;;;2.14;62.29
62694;BME280;48759;52.544;13.418;2023-01-28T08:48:41;102200.66;;;2.35;60.87
62694;BME280;48759;52.544;13.418;2023-01-28T08:51:07;102207.44;;;2.64;60.31
62694;BME280;48759;52.544;13.418;2023-01-28T08:53:34;102209.50;;;2.25;60.82
62694;BME280;48759;52.544;13.418;2023-01-28T08:56:00;102214.94;;;2.49;60.49
62694;BME280;48759;52.544;13.418;2023-01-28T08:58:28;102219.00;;;2.20;61.23
62694;BME280;48759;52.544;13.418;2023-01-28T09:00:55;102214.34;;;2.22;59.70
62694;BME280;48759;52.544;13.418;2023-01-28T09:03:22;102218.59;;;2.13;60.18
62694;BME280;48759;52.544;13.418;2023-01-28T09:05:49;102222.50;;;2.09;59.15
62694;BME280;48759;52.544;13.418;2023-01-28T09:08:15;102222.13;;;2.26;58.81
62694;BME280;48759;52.544;13.418;2023-01-28T09:10:42;102220.44;;;1.89;58.68
62694;BME280;48759;52.544;13.418;2023-01-28T09:13:12;102226.78;;;2.24;58.86
62694;BME280;48759;52.544;13.418;2023-01-28T09:15:40;102221.13;;;2.04;58.97
62694;BME280;48759;52.544;13.418;2023-01-28T09:18:07;102230.03;;;2.29;59.65
62694;BME280;48759;52.544;13.418;2023-01-28T09:20:34;102243.47;;;2.31;59.02
62694;BME280;48759;52.544;13.418;2023-01-28T09:23:01;102233.38;;;2.09;59.02
62694;BME280;48759;52.544;13.418;2023-01-28T09:25:28;102241.72;;;2.43;58.89
62694;BME280;48759;52.544;13.418;2023-01-28T09:27:55;102242.94;;;2.15;60.05
62694;BME280;48759;52.544;13.418;2023-01-28T09:30:22;102241.81;;;2.17;59.74
62694;BME280;48759;52.544;13.418;2023-01-28T09:32:51;102239.91;;;2.54;58.94
62694;BME280;48759;52.544;13.418;2023-01-28T09:35:18;102245.59;;;2.97;58.39
62694;BME280;48759;52.544;13.418;2023-01-28T09:37:45;102246.59;;;3.31;57.74
62694;BME280;48759;52.544;13.418;2023-01-28T09:40:14;102250.66;;;3.37;57.38
62694;BME280;48759;52.544;13.418;2023-01-28T09:42:56;102246.06;;;2.80;58.09
62694;BME280;48759;52.544;13.418;2023-01-28T09:45:30;102248.75;;;2.80;58.28
62694;BME280;48759;52.544;13.418;2023-01-28T09:48:02;102255.94;;;2.46;59.14
62694;BME280;48759;52.544;13.418;2023-01-28T09:50:31;102258.66;;;2.81;58.54
62694;BME280;48759;52.544;13.418;2023-01-28T09:53:02;102248.59;;;2.59;58.21
62694;BME280;48759;52.544;13.418;2023-01-28T09:55:32;102249.19;;;2.63;57.69
62694;BME280;48759;52.544;13.418;2023-01-28T09:57:59;102265.41;;;2.99;57.22
62694;BME280;48759;52.544;13.418;2023-01-28T10:00:31;102263.19;;;3.04;56.99
62694;BME280;48759;52.544;13.418;2023-01-28T10:03:17;102266.53;;;3.08;60.97
62694;BME280;48759;52.544;13.418;2023-01-28T10:05:54;102260.44;;;2.93;61.32
62694;BME280;48759;52.544;13.418;2023-01-28T10:08:34;102252.56;;;3.13;57.70
62694;BME280;48759;52.544;13.418;2023-01-28T10:11:11;102254.81;;;3.30;60.01
62694;BME280;48759;52.544;13.418;2023-01-28T10:13:47;102253.09;;;3.29;57.21
62694;BME280;48759;52.544;13.418;2023-01-28T10:16:27;102252.06;;;3.19;59.24
62694;BME280;48759;52.544;13.418;2023-01-28T10:19:00;102239.72;;;3.15;57.52
62694;BME280;48759;52.544;13.418;2023-01-28T10:21:33;102249.63;;;3.27;57.11
62694;BME280;48759;52.544;13.418;2023-01-28T10:24:05;102246.66;;;3.30;56.65
62694;BME280;48759;52.544;13.418;2023-01-28T10:26:38;102248.09;;;3.00;56.28
62694;BME280;48759;52.544;13.418;2023-01-28T10:29:12;102235.88;;;2.71;56.07
62694;BME280;48759;52.544;13.418;2023-01-28T10:31:44;102238.88;;;3.25;56.42
62694;BME280;48759;52.544;13.418;2023-01-28T10:34:17;102240.41;;;3.63;55.61
62694;BME280;48759;52.544;13.418;2023-01-28T10:36:44;102229.88;;;3.47;54.61
62694;BME280;48759;52.544;13.418;2023-01-28T10:39:12;102226.59;;;4.09;55.01
62694;BME280;48759;52.544;13.418;2023-01-28T10:41:40;102228.50;;;4.29;54.31
62694;BME280;48759;52.544;13.418;2023-01-28T10:44:12;102229.78;;;4.14;54.14
62694;BME280;48759;52.544;13.418;2023-01-28T10:46:41;102233.88;;;4.51;53.86
62694;BME280;48759;52.544;13.418;2023-01-28T10:49:13;102235.91;;;3.73;54.14
62694;BME280;48759;52.544;13.418;2023-01-28T10:51:42;102235.16;;;4.36;53.32
62694;BME280;48759;52.544;13.418;2023-01-28T10:54:20;102232.31;;;3.28;53.99
62694;BME280;48759;52.544;13.418;2023-01-28T10:56:48;102229.88;;;3.36;54.84
62694;BME280;48759;52.544;13.418;2023-01-28T10:59:21;102230.25;;;3.87;54.48
62694;BME280;48759;52.544;13.418;2023-01-28T11:01:49;102237.44;;;4.20;53.71
62694;BME280;48759;52.544;13.418;2023-01-28T11:04:21;102231.88;;;3.45;54.15
62694;BME280;48759;52.544;13.418;2023-01-28T11:06:56;102229.38;;;3.42;54.02
62694;BME280;48759;52.544;13.418;2023-01-28T11:09:25;102227.84;;;3.27;54.38
62694;BME280;48759;52.544;13.418;2023-01-28T11:11:52;102223.69;;;3.34;54.64
62694;BME280;48759;52.544;13.418;2023-01-28T11:14:23;102232.84;;;2.87;55.21
62694;BME280;48759;52.544;13.418;2023-01-28T11:16:53;102232.00;;;2.62;55.76
62694;BME280;48759;52.544;13.418;2023-01-28T11:19:26;102226.94;;;2.58;56.14
62694;BME280;48759;52.544;13.418;2023-01-28T11:21:55;102220.38;;;2.84;56.14
62694;BME280;48759;52.544;13.418;2023-01-28T11:24:26;102216.41;;;2.77;55.92
62694;BME280;48759;52.544;13.418;2023-01-28T11:26:56;102215.97;;;2.70;56.37
62694;BME280;48759;52.544;13.418;2023-01-28T11:29:26;102217.50;;;2.75;56.33
62694;BME280;48759;52.544;13.418;2023-01-28T11:31:55;102210.09;;;2.88;56.86
62694;BME280;48759;52.544;13.418;2023-01-28T11:34:27;102209.56;;;3.29;55.98
62694;BME280;48759;52.544;13.418;2023-01-28T11:37:01;102213.97;;;2.96;56.31
62694;BME280;48759;52.544;13.418;2023-01-28T11:39:30;102215.00;;;2.71;56.64
62694;BME280;48759;52.544;13.418;2023-01-28T11:42:10;102203.19;;;2.49;57.70
62694;BME280;48759;52.544;13.418;2023-01-28T11:44:38;102202.09;;;2.97;57.03
62694;BME280;48759;52.544;13.418;2023-01-28T11:47:24;102189.50;;;3.07;56.53
62694;BME280;48759;52.544;13.418;2023-01-28T11:50:03;102197.38;;;2.88;57.13
62694;BME280;48759;52.544;13.418;2023-01-28T11:52:44;102200.03;;;2.66;57.46
62694;BME280;48759;52.544;13.418;2023-01-28T11:55:22;102187.97;;;2.81;56.95
62694;BME280;48759;52.544;13.418;2023-01-28T11:58:02;102185.47;;;2.67;57.65
62694;BME280;48759;52.544;13.418;2023-01-28T12:00:39;102191.44;;;2.83;58.90
62694;BME280;48759;52.544;13.418;2023-01-28T12:03:31;102202.03;;;2.40;61.68
62694;BME280;48759;52.544;13.418;2023-01-28T12:06:21;102190.84;;;2.45;63.18
62694;BME280;48759;52.544;13.418;2023-01-28T12:08:58;102188.31;;;2.30;64.53
62694;BME280;48759;52.544;13.418;2023-01-28T12:11:38;102194.53;;;2.44;65.80
62694;BME280;48759;52.544;13.418;2023-01-28T12:14:34;102192.81;;;2.43;68.30
62694;BME280;48759;52.544;13.418;2023-01-28T12:17:11;102186.69;;;2.28;69.35
62694;BME280;48759;52.544;13.418;2023-01-28T12:19:51;102186.41;;;2.55;69.04
62694;BME280;48759;52.544;13.418;2023-01-28T12:22:40;102183.16;;;2.39;69.75
62694;BME280;48759;52.544;13.418;2023-01-28T12:25:25;102180.97;;;2.55;69.34
62694;BME280;48759;52.544;13.418;2023-01-28T12:27:59;102179.66;;;2.60;69.57
62694;BME280;48759;52.544;13.418;2023-01-28T12:30:56;102188.72;;;2.37;70.72
62694;BME280;48759;52.544;13.418;2023-01-28T12:33:47;102187.38;;;2.43;71.55
62694;BME280;48759;52.544;13.418;2023-01-28T12:36:29;102181.19;;;2.17;75.83
62694;BME280;48759;52.544;13.418;2023-01-28T12:39:09;102183.88;;;2.41;73.44
62694;BME280;48759;52.544;13.418;2023-01-28T12:41:46;102184.66;;;2.19;73.59
62694;BME280;48759;52.544;13.418;2023-01-28T12:44:19;102174.28;;;2.48;71.96
62694;BME280;48759;52.544;13.418;2023-01-28T12:46:50;102173.44;;;2.23;71.79
62694;BME280;48759;52.544;13.418;2023-01-28T12:49:22;102167.91;;;2.25;72.38
62694;BME280;48759;52.544;13.418;2023-01-28T12:52:00;102165.53;;;2.20;73.39
62694;BME280;48759;52.544;13.418;2023-01-28T12:54:31;102162.81;;;2.55;71.39
62694;BME280;48759;52.544;13.418;2023-01-28T12:57:02;102175.09;;;2.61;70.44
62694;BME280;48759;52.544;13.418;2023-01-28T12:59:31;102177.09;;;2.70;68.78